Gap Mills, West Virginia
Current Conditions -  °F | °C
As of 5:15 AM on Wednesday 26 Nov 2014 (Local Time) from KLWB Reporting Station
Light Snow Light Snow  
Wind Chill: 34°   Ceiling: 600
Heat Index: 34°   Visibility: 1.5mi
Dew Point: 32°   Wind: 0mph
Humidity: 92%   Direction: NA
Pressure: 29.98"   Gusts: NA
Location:  37.57°N, 80.41°W
Report Text: KLWB 261015Z AUTO 00000KT 1 1/2SM -SN OVC006 01/00 A2998 RMK AO2 P0004 T00130002
Loading
Personal Weather Stations






























Interactive Weather Map New forecast layout! Learn more

10-Day Weather Forecast

Advertisements
Track Severe Weather on mobile